Time;durP1;ratioP1;P1;durP2;ratioP2;P2;SDS_P1;SDS_P2;PMS_P1;PMS_P2;Temp;Humidity;BMP_temperature;BMP_pressure;BME280_temperature;BME280_humidity;BME280_pressure;Samples;Min_cycle;Max_cycle;Signal;HPM_P1;HPM_P2
2021/08/29 00:01:16;;;;;;;998.72;871.92;;;;;;;16.80;81.90;92850.44;5090742;28;20027;-44
2021/08/29 00:03:42;;;;;;;892.33;800.45;;;;;;;16.70;81.63;92854.66;5090736;28;20054;-43
2021/08/29 00:06:07;;;;;;;1140.88;922.60;;;;;;;16.62;81.80;92860.44;5090930;28;20027;-43
2021/08/29 00:08:33;;;;;;;1476.93;999.90;;;;;;;16.56;82.41;92841.28;5090630;28;20412;-43
2021/08/29 00:10:58;;;;;;;1564.05;999.90;;;;;;;16.66;82.79;92849.53;5089328;28;20020;-43
2021/08/29 00:13:24;;;;;;;1591.03;999.90;;;;;;;16.71;83.33;92850.53;5090668;28;20024;-43
2021/08/29 00:15:49;;;;;;;1507.38;999.90;;;;;;;16.72;83.26;92847.13;5090496;28;20027;-44
2021/08/29 00:18:15;;;;;;;1590.82;999.90;;;;;;;16.68;83.24;92841.28;5090722;28;20020;-43
2021/08/29 00:20:40;;;;;;;1845.13;999.90;;;;;;;16.80;84.19;92841.31;5090178;28;20028;-43
2021/08/29 00:23:06;;;;;;;1814.07;999.90;;;;;;;16.85;83.81;92838.16;5090435;28;20024;-43
2021/08/29 00:25:31;;;;;;;1536.95;999.90;;;;;;;16.86;83.53;92834.06;5090185;28;20056;-45
2021/08/29 00:27:57;;;;;;;1521.00;999.90;;;;;;;16.88;83.49;92825.81;5090399;28;20103;-46
2021/08/29 00:30:22;;;;;;;1560.75;999.90;;;;;;;17.04;83.46;92842.81;5090201;28;20047;-45
2021/08/29 00:32:48;;;;;;;1559.32;999.90;;;;;;;17.03;83.88;92844.13;5090577;28;20024;-44
2021/08/29 00:35:13;;;;;;;1630.10;999.90;;;;;;;16.96;83.74;92831.13;5090345;28;20420;-43
2021/08/29 00:37:39;;;;;;;1532.80;999.90;;;;;;;17.00;83.33;92823.75;5090484;28;20036;-44
2021/08/29 00:40:05;;;;;;;1580.57;999.90;;;;;;;16.93;83.81;92835.16;5090148;28;20073;-47
2021/08/29 00:42:31;;;;;;;1425.68;999.90;;;;;;;16.99;83.62;92832.72;5090139;28;20026;-44
2021/08/29 00:44:56;;;;;;;1053.55;898.70;;;;;;;16.95;82.72;92843.66;5090498;28;20111;-44
2021/08/29 00:47:22;;;;;;;1313.78;982.65;;;;;;;16.97;82.39;92833.34;5090155;28;20016;-46
2021/08/29 00:49:47;;;;;;;1171.63;923.10;;;;;;;16.96;82.49;92828.34;5088997;28;20050;-44
2021/08/29 00:52:12;;;;;;;1396.20;965.33;;;;;;;17.14;82.75;92824.59;5090441;28;20042;-45
2021/08/29 00:54:38;;;;;;;907.13;814.55;;;;;;;17.19;81.73;92828.38;5089726;28;20402;-45
2021/08/29 00:57:12;;;;;;;1107.53;890.65;;;;;;;17.22;82.03;92824.34;5090338;28;20024;-46
2021/08/29 00:59:40;;;;;;;1349.57;981.45;;;;;;;17.24;82.66;92821.69;5090324;28;20024;-45
2021/08/29 01:02:14;;;;;;;1366.60;976.95;;;;;;;17.26;82.69;92824.63;5088807;28;20043;-46
2021/08/29 01:05:04;;;;;;;1178.97;914.42;;;;;;;17.27;82.31;92820.47;5090022;28;20056;-43
2021/08/29 01:07:38;;;;;;;1065.18;909.47;;;;;;;17.28;82.62;92822.66;5090298;28;20027;-45
2021/08/29 01:10:10;;;;;;;794.63;721.58;;;;;;;17.16;81.93;92821.22;5089156;28;20092;-46
2021/08/29 01:12:37;;;;;;;1010.58;871.33;;;;;;;17.07;82.47;92814.41;5090286;28;20026;-46
2021/08/29 01:15:05;;;;;;;1359.13;998.17;;;;;;;16.92;83.15;92806.53;5089061;28;20024;-43
2021/08/29 01:17:32;;;;;;;1480.82;999.90;;;;;;;16.85;84.11;92795.63;5088595;28;20114;-43
2021/08/29 01:20:14;;;;;;;1999.90;999.90;;;;;;;16.85;85.24;92787.97;5088640;28;20716;-44
2021/08/29 01:22:40;;;;;;;1912.00;999.90;;;;;;;16.88;85.04;92774.91;5090144;28;20110;-46
2021/08/29 01:25:09;;;;;;;1956.07;999.90;;;;;;;16.66;85.19;92755.50;5089800;28;20478;-46
2021/08/29 01:27:47;;;;;;;1735.88;999.90;;;;;;;16.91;84.82;92779.28;5088497;28;20083;-46
2021/08/29 01:30:12;;;;;;;1812.43;999.90;;;;;;;16.86;84.95;92781.09;5088967;28;20394;-45
2021/08/29 01:32:38;;;;;;;1878.90;999.90;;;;;;;16.93;84.59;92782.19;5093606;28;20077;-45
2021/08/29 01:35:04;;;;;;;1944.18;999.90;;;;;;;16.93;84.77;92785.69;5092256;28;20028;-45
2021/08/29 01:37:31;;;;;;;1909.40;999.90;;;;;;;16.98;84.50;92786.66;5092572;28;20078;-45
2021/08/29 01:39:56;;;;;;;1862.60;999.90;;;;;;;17.02;84.52;92786.91;5093409;28;20030;-44
2021/08/29 01:42:22;;;;;;;1678.40;999.90;;;;;;;17.01;84.18;92783.38;5093337;28;20031;-43
2021/08/29 01:44:48;;;;;;;1643.03;999.90;;;;;;;17.06;84.25;92789.94;5092425;28;20032;-45
2021/08/29 01:47:16;;;;;;;1560.72;999.90;;;;;;;17.07;83.93;92783.00;5093626;28;20031;-44
2021/08/29 01:49:41;;;;;;;1529.55;999.90;;;;;;;17.05;83.95;92788.47;5093326;28;20027;-45
2021/08/29 01:52:07;;;;;;;1770.28;999.90;;;;;;;17.14;84.25;92785.56;5091846;28;20036;-45
2021/08/29 01:54:32;;;;;;;1602.57;999.90;;;;;;;17.20;83.73;92794.28;5092073;28;20058;-44
2021/08/29 01:57:01;;;;;;;1559.28;999.90;;;;;;;17.17;83.83;92789.91;5093361;28;20416;-47
2021/08/29 01:59:27;;;;;;;1624.10;999.90;;;;;;;17.11;83.80;92795.13;5093334;28;20052;-45
2021/08/29 02:01:53;;;;;;;1601.82;999.90;;;;;;;17.11;84.04;92786.75;5093022;28;20103;-46
2021/08/29 02:04:20;;;;;;;1640.03;999.90;;;;;;;17.21;84.07;92783.84;5092984;28;20039;-44
2021/08/29 02:06:47;;;;;;;1550.72;999.90;;;;;;;17.32;83.32;92789.44;5092908;28;20809;-45
2021/08/29 02:09:14;;;;;;;1438.57;999.90;;;;;;;17.30;83.38;92783.00;5080535;28;20024;-46
2021/08/29 02:11:43;;;;;;;1590.63;999.90;;;;;;;17.41;83.34;92790.63;5088818;28;20548;-45
2021/08/29 02:14:14;;;;;;;1350.72;999.90;;;;;;;17.30;83.28;92780.22;5089544;28;20028;-45
2021/08/29 02:16:41;;;;;;;1818.63;999.90;;;;;;;17.24;83.63;92777.03;5093058;28;20036;-46
2021/08/29 02:19:07;;;;;;;1440.65;999.90;;;;;;;17.31;83.24;92781.66;5091754;28;20028;-44
2021/08/29 02:21:33;;;;;;;1469.68;999.90;;;;;;;17.26;83.39;92779.97;5091779;28;20028;-44
2021/08/29 02:23:59;;;;;;;1425.93;999.90;;;;;;;17.26;83.56;92785.56;5091322;28;20016;-44
2021/08/29 02:26:25;;;;;;;1428.53;999.90;;;;;;;17.32;83.76;92785.91;5092547;28;20087;-43
2021/08/29 02:28:51;;;;;;;1485.40;999.90;;;;;;;17.29;83.33;92789.91;5091321;28;20059;-45
2021/08/29 02:31:19;;;;;;;1479.40;999.90;;;;;;;17.28;84.13;92794.03;5078527;28;20020;-43
2021/08/29 02:33:44;;;;;;;1520.93;999.90;;;;;;;17.28;83.65;92791.25;5091569;28;20474;-43
2021/08/29 02:36:10;;;;;;;1690.40;999.90;;;;;;;17.26;84.13;92796.72;5092607;28;20028;-43
2021/08/29 02:38:35;;;;;;;1929.55;999.90;;;;;;;17.14;84.42;92791.13;5083483;28;20539;-45
2021/08/29 02:41:02;;;;;;;1999.90;999.90;;;;;;;17.22;85.22;92785.28;5076071;28;20140;-46
2021/08/29 02:43:28;;;;;;;1999.90;999.90;;;;;;;17.24;85.61;92785.41;5090784;28;20054;-44
2021/08/29 02:45:54;;;;;;;1999.90;999.90;;;;;;;17.33;85.39;92787.34;5090997;28;20546;-45
2021/08/29 02:48:21;;;;;;;1999.90;999.90;;;;;;;17.37;85.40;92796.69;5092028;28;20027;-45
2021/08/29 02:50:47;;;;;;;1999.90;999.90;;;;;;;17.39;84.85;92793.28;5092346;28;20047;-45
2021/08/29 02:53:16;;;;;;;1915.25;999.90;;;;;;;17.45;85.00;92805.50;5092291;28;20493;-47
2021/08/29 02:55:43;;;;;;;1904.95;999.90;;;;;;;17.46;84.89;92806.25;5091676;28;20035;-44
2021/08/29 02:58:09;;;;;;;1873.50;999.90;;;;;;;17.45;84.77;92818.75;5092088;28;20424;-44
2021/08/29 03:00:35;;;;;;;1835.43;999.90;;;;;;;17.49;85.04;92813.41;5092022;28;20107;-44
2021/08/29 03:03:00;;;;;;;1749.18;999.90;;;;;;;17.48;85.01;92820.31;5092093;28;20421;-43
2021/08/29 03:05:26;;;;;;;1952.93;999.90;;;;;;;17.53;85.55;92813.69;5091614;28;20026;-45
2021/08/29 03:07:51;;;;;;;1995.35;999.90;;;;;;;17.56;85.48;92822.91;5091055;28;20016;-44
2021/08/29 03:10:17;;;;;;;1996.85;999.90;;;;;;;17.58;85.37;92820.22;5091857;28;20596;-44
2021/08/29 03:12:43;;;;;;;1999.90;999.90;;;;;;;17.64;85.57;92818.50;5091940;28;20028;-44
2021/08/29 03:15:11;;;;;;;1999.90;999.90;;;;;;;17.65;85.58;92817.16;5090669;28;20505;-46
2021/08/29 03:17:36;;;;;;;1954.25;999.90;;;;;;;17.71;85.76;92831.50;5091422;28;20020;-45
2021/08/29 03:20:07;;;;;;;1999.90;999.90;;;;;;;17.75;85.49;92831.72;5090636;28;20032;-45
2021/08/29 03:22:33;;;;;;;1984.97;999.90;;;;;;;17.81;86.19;92843.22;5091486;28;20047;-46
2021/08/29 03:24:58;;;;;;;1954.50;999.90;;;;;;;17.82;85.92;92833.50;5091612;28;20064;-44
2021/08/29 03:27:24;;;;;;;1999.90;999.90;;;;;;;17.82;86.10;92839.09;5091071;28;20036;-44
2021/08/29 03:29:49;;;;;;;1999.90;999.90;;;;;;;17.78;86.31;92835.34;5091304;28;20039;-45
2021/08/29 03:32:15;;;;;;;1982.88;999.90;;;;;;;17.86;85.77;92827.44;5091296;28;20023;-45
2021/08/29 03:34:41;;;;;;;1955.03;999.90;;;;;;;17.92;85.47;92831.31;5091528;28;20032;-44
2021/08/29 03:37:07;;;;;;;1801.22;999.90;;;;;;;17.69;85.74;92797.88;5089927;28;20051;-44
2021/08/29 03:39:34;;;;;;;1623.45;999.90;;;;;;;17.85;84.75;92842.72;5090281;28;20026;-45
2021/08/29 03:41:59;;;;;;;1729.55;999.90;;;;;;;17.67;85.31;92838.91;5090168;28;20028;-44
2021/08/29 03:44:25;;;;;;;1999.90;999.90;;;;;;;17.39;86.60;92843.50;5091396;28;20502;-44
2021/08/29 03:46:52;;;;;;;1962.85;969.10;;;;;;;17.27;87.95;92840.00;5091005;28;20032;-44
2021/08/29 03:49:17;;;;;;;1204.18;606.10;;;;;;;17.22;88.71;92832.72;5090822;28;20112;-45
2021/08/29 03:51:43;;;;;;;1157.18;578.72;;;;;;;17.25;89.04;92832.25;5091049;28;20063;-45
2021/08/29 03:54:12;;;;;;;826.33;419.10;;;;;;;17.28;89.15;92833.81;5088666;28;20038;-46
2021/08/29 03:56:37;;;;;;;;;;;;;;;17.19;89.16;92839.53;5091340;28;20122;-45
2021/08/29 03:59:03;;;;;;;561.67;291.57;;;;;;;17.02;89.94;92846.19;5089520;28;20006;-45
2021/08/29 04:01:29;;;;;;;231.75;134.23;;;;;;;16.84;91.27;92849.94;5090999;28;20453;-44
2021/08/29 04:03:55;;;;;;;108.65;70.95;;;;;;;16.97;91.81;92854.91;5091110;28;20119;-43
2021/08/29 04:06:22;;;;;;;72.18;40.55;;;;;;;17.09;91.50;92861.22;5090966;28;20493;-43
2021/08/29 04:08:54;;;;;;;77.75;46.88;;;;;;;17.24;90.95;92866.31;5089782;28;20020;-44
2021/08/29 04:11:25;;;;;;;79.78;53.33;;;;;;;17.32;89.78;92875.19;5090830;28;20027;-43
2021/08/29 04:13:53;;;;;;;104.03;61.90;;;;;;;17.29;90.20;92860.38;5089376;28;20032;-43
2021/08/29 04:16:19;;;;;;;76.00;43.83;;;;;;;17.50;90.24;92881.88;5090514;28;20020;-43
2021/08/29 04:18:46;;;;;;;111.28;74.57;;;;;;;17.55;89.68;92872.41;5090763;28;20034;-44
2021/08/29 04:21:13;;;;;;;136.52;79.50;;;;;;;17.55;89.55;92874.47;5090469;28;20059;-44
2021/08/29 04:23:39;;;;;;;132.57;77.75;;;;;;;17.61;89.80;92875.53;5090489;28;20506;-45
2021/08/29 04:26:06;;;;;;;184.73;114.55;;;;;;;17.53;88.96;92866.72;5090325;28;20135;-44
2021/08/29 04:28:32;;;;;;;269.92;155.18;;;;;;;17.63;88.79;92872.88;5090388;28;20020;-45
2021/08/29 04:31:00;;;;;;;288.17;162.82;;;;;;;17.70;88.99;92869.09;5089499;28;20039;-44
2021/08/29 04:33:26;;;;;;;206.65;141.45;;;;;;;17.64;89.26;92860.38;5090662;28;20032;-44
2021/08/29 04:35:52;;;;;;;286.95;148.90;;;;;;;17.64;88.79;92865.22;5090272;28;20472;-43
2021/08/29 04:38:18;;;;;;;381.33;202.82;;;;;;;17.72;88.51;92868.50;5090441;28;20417;-44
2021/08/29 04:40:44;;;;;;;597.00;294.83;;;;;;;17.90;88.17;92873.09;5090347;28;20032;-44
2021/08/29 04:43:09;;;;;;;1195.75;561.75;;;;;;;17.95;87.87;92868.47;5090225;28;20467;-45
2021/08/29 04:45:35;;;;;;;798.90;377.50;;;;;;;17.97;87.66;92854.59;5090314;28;20458;-45
2021/08/29 04:48:00;;;;;;;1312.35;622.38;;;;;;;18.06;87.45;92846.06;5090440;28;20531;-45
2021/08/29 04:50:26;;;;;;;1099.00;555.15;;;;;;;18.14;87.46;92846.53;5090515;28;20028;-45
2021/08/29 04:52:51;;;;;;;1999.90;999.90;;;;;;;18.25;86.82;92853.41;5090194;28;20031;-44
2021/08/29 04:55:17;;;;;;;1863.60;999.90;;;;;;;18.27;85.57;92855.59;5089763;28;20039;-43
2021/08/29 04:57:42;;;;;;;1977.00;999.90;;;;;;;18.27;85.43;92861.19;5090335;28;20165;-43
2021/08/29 05:00:08;;;;;;;1981.07;999.90;;;;;;;18.22;85.37;92859.47;5090018;28;20420;-43
2021/08/29 05:02:34;;;;;;;1999.90;999.90;;;;;;;18.11;86.13;92863.78;5090339;28;20054;-43
2021/08/29 05:04:59;;;;;;;1999.90;999.90;;;;;;;18.02;86.71;92850.69;5090017;28;20024;-45
2021/08/29 05:07:25;;;;;;;1615.55;774.70;;;;;;;18.04;87.80;92840.34;5093555;28;20122;-47
2021/08/29 05:09:50;;;;;;;1462.15;732.15;;;;;;;18.12;87.19;92840.84;5094024;28;20039;-45
2021/08/29 05:12:16;;;;;;;1896.95;913.40;;;;;;;18.25;87.40;92856.22;5093972;28;20027;-45
2021/08/29 05:14:42;;;;;;;1999.90;999.90;;;;;;;18.39;86.79;92859.06;5094185;28;20032;-45
2021/08/29 05:17:07;;;;;;;1999.90;999.90;;;;;;;18.49;86.64;92863.19;5094103;28;20019;-45
2021/08/29 05:19:33;;;;;;;1999.90;999.90;;;;;;;18.57;86.26;92860.09;5093795;28;20060;-45
2021/08/29 05:21:58;;;;;;;1789.88;999.90;;;;;;;18.64;84.88;92851.44;5092333;28;20028;-46
2021/08/29 05:24:24;;;;;;;1341.68;999.90;;;;;;;18.71;84.30;92850.41;5093885;28;20553;-45
2021/08/29 05:26:49;;;;;;;1475.32;999.90;;;;;;;18.84;84.43;92844.13;5093278;28;20063;-46
2021/08/29 05:29:15;;;;;;;948.80;869.05;;;;;;;18.91;84.14;92845.19;5093784;28;20031;-46
2021/08/29 05:31:40;;;;;;;1058.07;955.30;;;;;;;19.02;83.55;92838.03;5093804;28;20508;-44
2021/08/29 05:34:05;;;;;;;945.53;863.65;;;;;;;19.14;83.17;92833.09;5093834;28;20032;-45
2021/08/29 05:36:31;;;;;;;1379.60;999.90;;;;;;;19.13;82.10;92829.56;5093365;28;20028;-44
2021/08/29 05:38:56;;;;;;;977.67;884.72;;;;;;;19.23;81.99;92835.69;5093290;28;20096;-46
2021/08/29 05:41:22;;;;;;;1553.97;999.90;;;;;;;19.34;80.72;92842.56;5093333;28;20055;-45
2021/08/29 05:43:47;;;;;;;1749.18;999.90;;;;;;;19.28;80.28;92839.44;5093331;28;20020;-46
2021/08/29 05:46:13;;;;;;;1568.47;999.90;;;;;;;19.19;81.14;92823.59;5093338;28;20024;-48
2021/08/29 05:48:38;;;;;;;1028.80;917.75;;;;;;;19.24;81.50;92825.97;5093589;28;20016;-43
2021/08/29 05:51:04;;;;;;;1497.18;999.90;;;;;;;19.34;81.01;92822.97;5093579;28;20477;-44
2021/08/29 05:53:29;;;;;;;1742.03;999.90;;;;;;;19.36;79.79;92823.09;5092876;28;20409;-45
2021/08/29 05:55:55;;;;;;;1947.50;999.90;;;;;;;19.47;79.15;92817.38;5093498;28;20020;-45
2021/08/29 05:58:21;;;;;;;1902.40;999.90;;;;;;;19.61;79.39;92817.38;5092129;28;20024;-46
2021/08/29 06:00:47;;;;;;;1575.88;999.90;;;;;;;19.73;78.22;92817.97;5093075;28;20524;-46
2021/08/29 06:03:12;;;;;;;1518.93;999.90;;;;;;;19.67;77.65;92814.88;5093328;28;20052;-46
2021/08/29 06:05:38;;;;;;;1351.40;999.90;;;;;;;19.73;77.13;92815.19;5093235;28;20024;-47
2021/08/29 06:08:04;;;;;;;1639.10;999.90;;;;;;;19.81;77.79;92801.59;5092932;28;20495;-45
2021/08/29 06:10:29;;;;;;;1370.43;999.90;;;;;;;19.94;77.58;92809.25;5092865;28;20020;-46
2021/08/29 06:12:55;;;;;;;1254.22;999.90;;;;;;;19.74;76.50;92807.50;5093214;28;20035;-47
2021/08/29 06:15:20;;;;;;;1483.63;999.90;;;;;;;19.66;79.66;92788.94;5091453;28;20512;-46
2021/08/29 06:17:46;;;;;;;1324.68;999.90;;;;;;;19.99;77.80;92802.47;5091692;28;20442;-46
2021/08/29 06:20:12;;;;;;;1090.95;996.33;;;;;;;19.98;74.42;92817.84;5092785;28;20107;-46
2021/08/29 06:22:37;;;;;;;1110.70;999.55;;;;;;;19.76;74.76;92825.16;5092979;28;20024;-47
2021/08/29 06:25:03;;;;;;;1189.40;999.90;;;;;;;19.53;75.97;92833.78;5092543;28;20023;-46
2021/08/29 06:27:29;;;;;;;1181.20;999.90;;;;;;;19.27;75.92;92833.13;5092360;28;20123;-45
2021/08/29 06:29:54;;;;;;;1597.97;999.90;;;;;;;19.23;78.03;92834.97;5092449;28;20054;-45
2021/08/29 06:32:19;;;;;;;1743.85;999.90;;;;;;;19.19;78.98;92835.47;5092022;28;20020;-46
2021/08/29 06:34:45;;;;;;;1540.78;999.90;;;;;;;19.29;78.76;92827.63;5073446;28;20056;-45
2021/08/29 06:37:11;;;;;;;1792.70;999.90;;;;;;;19.49;78.60;92837.09;5072338;28;20032;-47
2021/08/29 06:39:36;;;;;;;1233.95;999.90;;;;;;;19.69;76.49;92834.59;5072158;28;20059;-47
2021/08/29 06:42:02;;;;;;;1234.95;999.90;;;;;;;19.84;76.34;92833.94;5072008;28;20028;-45
2021/08/29 06:44:27;;;;;;;1145.85;999.90;;;;;;;19.99;74.74;92838.91;5082259;28;20028;-45
2021/08/29 06:46:53;;;;;;;1143.45;999.90;;;;;;;20.18;75.31;92830.03;5071559;28;20032;-46
2021/08/29 06:49:18;;;;;;;1169.43;999.90;;;;;;;20.28;75.20;92833.38;5070688;28;20020;-47
2021/08/29 06:51:44;;;;;;;1066.05;979.58;;;;;;;20.35;73.80;92840.72;5070800;28;20017;-45
2021/08/29 06:54:09;;;;;;;1037.28;952.65;;;;;;;20.41;73.09;92848.69;5076752;28;20027;-46
2021/08/29 06:56:35;;;;;;;1022.33;942.72;;;;;;;20.85;72.67;92845.19;5089407;28;20103;-48
2021/08/29 06:59:00;;;;;;;1004.38;927.00;;;;;;;21.24;70.72;92849.78;5090397;28;20048;-45
2021/08/29 07:01:26;;;;;;;1056.65;973.75;;;;;;;21.21;72.04;92856.66;5091191;28;20055;-45
2021/08/29 07:03:51;;;;;;;1043.15;960.03;;;;;;;21.18;71.91;92857.94;5091428;28;20420;-45
2021/08/29 07:06:16;;;;;;;1057.03;971.80;;;;;;;20.90;71.88;92834.84;5090803;28;20027;-46
2021/08/29 07:08:42;;;;;;;1094.60;999.58;;;;;;;20.91;72.48;92856.69;5090703;28;20024;-46
2021/08/29 07:11:07;;;;;;;1091.88;997.88;;;;;;;20.88;72.33;92855.16;5090343;28;20024;-46
2021/08/29 07:13:33;;;;;;;1108.93;999.90;;;;;;;20.80;72.54;92860.38;5086876;28;20024;-47
2021/08/29 07:15:58;;;;;;;1134.05;999.90;;;;;;;20.71;73.01;92836.09;5085499;28;20028;-47
2021/08/29 07:18:24;;;;;;;1071.75;983.92;;;;;;;20.83;72.19;92845.09;5087782;28;20062;-47
2021/08/29 07:20:49;;;;;;;1053.88;971.08;;;;;;;21.05;71.30;92840.53;5087951;28;20028;-45
2021/08/29 07:23:15;;;;;;;1018.13;941.05;;;;;;;21.42;70.65;92842.19;5088267;28;20024;-45
2021/08/29 07:25:40;;;;;;;985.03;913.50;;;;;;;22.06;68.95;92833.00;5087618;28;20047;-46
2021/08/29 07:28:06;;;;;;;896.15;837.45;;;;;;;23.44;64.66;92839.91;5088441;28;20237;-47
2021/08/29 07:30:32;;;;;;;798.25;748.42;;;;;;;23.90;60.54;92835.94;5088277;28;20020;-43
2021/08/29 07:32:58;;;;;;;741.17;697.53;;;;;;;24.98;56.85;92838.88;5087340;28;20051;-45
2021/08/29 07:35:23;;;;;;;757.53;713.42;;;;;;;25.50;56.02;92834.84;5088098;28;20024;-43
2021/08/29 07:37:49;;;;;;;717.85;677.15;;;;;;;26.47;52.79;92833.94;5086960;28;20082;-45
2021/08/29 07:40:14;;;;;;;693.80;654.72;;;;;;;27.46;50.11;92828.53;5086241;28;20103;-44
2021/08/29 07:42:40;;;;;;;723.50;681.95;;;;;;;27.70;47.50;92837.53;5084052;28;20389;-43
2021/08/29 07:45:06;;;;;;;758.03;714.15;;;;;;;27.54;48.56;92826.59;5086221;28;20118;-44
2021/08/29 07:47:32;;;;;;;500.27;475.48;;;;;;;27.55;47.10;92825.19;5084539;28;20024;-45
2021/08/29 07:49:58;;;;;;;411.52;391.63;;;;;;;28.24;47.03;92823.75;5086953;28;20024;-44
2021/08/29 07:52:23;;;;;;;69.95;66.75;;;;;;;28.61;44.94;92830.84;5086953;28;20027;-45
2021/08/29 07:54:49;;;;;;;14.07;13.25;;;;;;;28.95;43.96;92832.13;5086066;28;20644;-44
2021/08/29 07:57:14;;;;;;;3.35;3.00;;;;;;;29.45;42.53;92817.25;5086558;28;20020;-43
2021/08/29 07:59:40;;;;;;;4.22;2.38;;;;;;;29.87;42.71;92824.22;5086805;28;20531;-45
2021/08/29 08:02:05;;;;;;;4.20;3.20;;;;;;;30.73;40.88;92829.47;5085392;28;20783;-43
2021/08/29 08:04:31;;;;;;;3.95;3.22;;;;;;;31.48;38.76;92838.63;5085952;28;20034;-44
2021/08/29 08:06:56;;;;;;;3.58;2.92;;;;;;;31.46;36.90;92847.91;5086438;28;20043;-44
2021/08/29 08:09:22;;;;;;;6.22;3.90;;;;;;;30.64;38.61;92845.03;5086583;28;20023;-44
2021/08/29 08:11:47;;;;;;;5.68;3.83;;;;;;;29.59;42.23;92848.72;5087031;28;20339;-44
2021/08/29 08:14:13;;;;;;;4.20;3.70;;;;;;;28.35;44.55;92831.75;5086753;28;20020;-48
2021/08/29 08:16:38;;;;;;;6.57;4.40;;;;;;;27.59;46.00;92844.44;5086859;28;20023;-41
2021/08/29 08:19:04;;;;;;;8.50;4.90;;;;;;;26.77;48.77;92843.19;5087928;28;20059;-42
2021/08/29 08:21:29;;;;;;;37.70;35.78;;;;;;;26.14;50.36;92835.22;5087862;28;20131;-42
2021/08/29 08:23:55;;;;;;;247.38;236.02;;;;;;;25.92;51.54;92835.31;5086740;28;20038;-42
2021/08/29 08:26:20;;;;;;;195.15;186.18;;;;;;;26.31;50.30;92837.09;5086837;28;20052;-43
2021/08/29 08:28:46;;;;;;;306.65;292.13;;;;;;;26.55;50.30;92829.19;5087193;28;20479;-43
2021/08/29 08:31:11;;;;;;;110.72;105.68;;;;;;;26.51;49.24;92823.44;5085430;28;20060;-44
2021/08/29 08:33:37;;;;;;;21.83;20.55;;;;;;;27.12;48.25;92813.56;5086971;28;20024;-43
2021/08/29 08:36:02;;;;;;;36.10;33.95;;;;;;;27.24;47.98;92819.53;5086531;28;20039;-44
2021/08/29 08:38:28;;;;;;;83.70;79.70;;;;;;;27.14;48.93;92817.16;5086676;28;20020;-46
2021/08/29 08:40:53;;;;;;;27.63;26.13;;;;;;;27.30;48.48;92819.66;5086212;28;20572;-43
2021/08/29 08:43:19;;;;;;;6.70;5.45;;;;;;;28.87;45.31;92817.06;5087070;28;20023;-48
2021/08/29 08:45:47;;;;;;;10.80;4.88;;;;;;;30.85;41.09;92806.03;5087092;28;20028;-44
2021/08/29 08:48:13;;;;;;;6.25;4.65;;;;;;;32.43;38.43;92791.97;5086003;28;20058;-45
2021/08/29 08:50:44;;;;;;;4.55;4.15;;;;;;;34.00;34.18;92809.06;5085524;28;20059;-43
2021/08/29 08:53:10;;;;;;;4.75;4.15;;;;;;;33.78;34.17;92794.13;5081171;28;20032;-43
2021/08/29 08:55:36;;;;;;;5.15;4.65;;;;;;;33.18;34.78;92809.25;5083735;28;20012;-42
2021/08/29 08:58:02;;;;;;;6.40;5.80;;;;;;;32.58;35.96;92810.59;5084201;28;20024;-44
2021/08/29 09:00:28;;;;;;;6.07;5.38;;;;;;;32.04;37.58;92808.28;5078382;28;20030;-44
2021/08/29 09:02:55;;;;;;;5.97;5.38;;;;;;;31.78;36.91;92807.41;5082844;28;20058;-42
2021/08/29 09:05:21;;;;;;;7.15;6.00;;;;;;;31.45;38.12;92812.22;5084023;28;20032;-42
2021/08/29 09:07:47;;;;;;;6.55;5.85;;;;;;;30.78;39.16;92808.13;5084273;28;20591;-43
2021/08/29 09:10:12;;;;;;;9.57;6.88;;;;;;;30.01;41.21;92788.81;5086178;28;20032;-43
2021/08/29 09:13:00;;;;;;;8.15;6.80;;;;;;;29.31;42.65;92802.81;5086017;28;20031;-42
2021/08/29 09:15:26;;;;;;;9.45;6.50;;;;;;;28.68;43.98;92798.25;5086829;28;20039;-43
2021/08/29 09:17:52;;;;;;;9.38;6.85;;;;;;;28.53;46.20;92809.38;5086415;28;20028;-44
2021/08/29 09:20:27;;;;;;;6.93;6.22;;;;;;;28.82;44.83;92799.22;5084501;28;20035;-44
2021/08/29 09:22:54;;;;;;;7.68;6.22;;;;;;;28.88;45.39;92799.31;5086217;28;20074;-43
2021/08/29 09:25:22;;;;;;;8.25;6.70;;;;;;;30.02;42.77;92795.94;5085772;28;20032;-44
2021/08/29 09:27:51;;;;;;;7.90;6.22;;;;;;;31.75;38.87;92789.56;5086500;28;20031;-42
2021/08/29 09:30:17;;;;;;;6.55;5.82;;;;;;;33.39;35.63;92797.06;5086461;28;20058;-46
2021/08/29 09:32:53;;;;;;;7.25;6.55;;;;;;;34.72;33.04;92798.72;5086470;28;20055;-46
2021/08/29 09:35:19;;;;;;;8.25;6.93;;;;;;;35.33;31.32;92790.38;5086281;28;20028;-45
2021/08/29 09:37:45;;;;;;;8.82;6.63;;;;;;;35.65;31.69;92785.06;5085683;28;20024;-45
2021/08/29 09:40:28;;;;;;;6.22;5.63;;;;;;;35.85;30.33;92787.00;5085694;28;20016;-42
2021/08/29 09:42:54;;;;;;;6.40;5.78;;;;;;;36.96;28.78;92779.88;5081785;28;20849;-44
2021/08/29 09:45:23;;;;;;;6.25;5.65;;;;;;;37.98;27.97;92797.56;5083042;28;20035;-45
2021/08/29 09:47:48;;;;;;;;;;;;;;;37.85;27.25;92787.72;5088611;28;20031;-42
2021/08/29 09:50:15;;;;;;;6.60;6.00;;;;;;;37.48;27.18;92781.19;5087428;28;19912;-43
2021/08/29 09:52:41;;;;;;;8.30;5.90;;;;;;;37.84;27.52;92778.38;5086178;28;20502;-44
2021/08/29 09:55:07;;;;;;;12.13;7.30;;;;;;;38.88;26.22;92774.09;5088497;28;20027;-44
2021/08/29 09:57:33;;;;;;;7.20;6.50;;;;;;;39.15;25.20;92780.69;5087351;28;20101;-44
2021/08/29 09:59:58;;;;;;;7.68;6.97;;;;;;;37.43;27.72;92777.66;5089258;28;20463;-43
2021/08/29 10:02:26;;;;;;;11.88;7.78;;;;;;;34.77;31.28;92780.06;5088565;28;20408;-41
2021/08/29 10:05:10;;;;;;;10.23;7.65;;;;;;;35.33;30.95;92779.63;5089228;28;20028;-42
2021/08/29 10:07:35;;;;;;;7.68;6.32;;;;;;;36.02;28.07;92776.78;5089960;28;20020;-42
2021/08/29 10:10:20;;;;;;;7.72;6.97;;;;;;;36.22;28.69;92767.19;5090715;28;20081;-43
2021/08/29 10:12:47;;;;;;;6.57;5.95;;;;;;;37.15;26.98;92766.59;5087656;28;20497;-42
2021/08/29 10:15:12;;;;;;;8.93;7.75;;;;;;;37.71;27.68;92765.63;5089162;28;20440;-42
2021/08/29 10:17:40;;;;;;;9.90;8.90;;;;;;;36.54;28.33;92766.78;5088703;28;20024;-42
2021/08/29 10:20:06;;;;;;;10.20;9.20;;;;;;;36.18;28.85;92762.22;5086319;28;20577;-41
2021/08/29 10:22:34;;;;;;;9.82;8.30;;;;;;;35.95;28.89;92758.22;5088651;28;20409;-41
2021/08/29 10:25:01;;;;;;;7.18;6.47;;;;;;;35.64;30.77;92766.44;5088205;28;20136;-44
2021/08/29 10:27:28;;;;;;;5.93;5.43;;;;;;;36.12;30.97;92755.84;5086839;28;20112;-44
2021/08/29 10:29:55;;;;;;;6.18;5.68;;;;;;;36.74;30.19;92763.63;5088128;28;20028;-43
2021/08/29 10:32:24;;;;;;;8.97;6.13;;;;;;;35.99;31.23;92768.94;5083949;28;20028;-43
2021/08/29 10:34:50;;;;;;;8.88;6.25;;;;;;;36.58;29.75;92766.03;5088358;28;20446;-43
2021/08/29 10:37:15;;;;;;;6.30;5.72;;;;;;;37.32;28.84;92761.97;5089467;28;20020;-43
2021/08/29 10:39:41;;;;;;;7.07;6.35;;;;;;;37.46;28.13;92755.31;5088267;28;20024;-44
2021/08/29 10:42:07;;;;;;;12.25;10.95;;;;;;;37.72;27.73;92760.59;5088274;28;20093;-44
2021/08/29 10:44:34;;;;;;;8.70;6.03;;;;;;;37.85;27.49;92762.50;5088402;28;20023;-42
2021/08/29 10:47:00;;;;;;;6.47;5.88;;;;;;;38.14;27.58;92759.75;5089302;28;20035;-43
2021/08/29 10:49:26;;;;;;;6.60;6.00;;;;;;;38.22;27.40;92770.44;5086670;28;20020;-43
2021/08/29 10:51:52;;;;;;;6.20;5.32;;;;;;;38.20;27.17;92764.72;5088507;28;20035;-43
2021/08/29 10:54:18;;;;;;;6.70;5.25;;;;;;;38.12;27.65;92773.53;5088891;28;20024;-44
2021/08/29 10:56:44;;;;;;;5.88;5.32;;;;;;;37.83;26.90;92764.72;5089341;28;20081;-44
2021/08/29 10:59:12;;;;;;;6.47;5.25;;;;;;;37.69;27.18;92768.53;5089270;28;20505;-47
2021/08/29 11:01:39;;;;;;;6.57;5.55;;;;;;;35.76;30.50;92769.16;5076002;28;20032;-43
2021/08/29 11:04:25;;;;;;;5.72;5.22;;;;;;;35.32;31.63;92763.84;5086253;28;20100;-44